sensor_id;sensor_type;location;lat;lon;timestamp;P1;durP1;ratioP1;P2;durP2;ratioP2
36555;SDS011;40859;50.560;7.268;2022-08-01T00:02:08;6.30;;;1.10;;
36555;SDS011;40859;50.560;7.268;2022-08-01T00:04:34;3.33;;;0.75;;
36555;SDS011;40859;50.560;7.268;2022-08-01T00:06:59;4.07;;;1.80;;
36555;SDS011;40859;50.560;7.268;2022-08-01T00:09:25;3.15;;;1.20;;
36555;SDS011;40859;50.560;7.268;2022-08-01T00:11:51;2.03;;;1.02;;
36555;SDS011;40859;50.560;7.268;2022-08-01T00:14:20;3.08;;;1.15;;
36555;SDS011;40859;50.560;7.268;2022-08-01T00:16:47;1.00;;;0.75;;
36555;SDS011;40859;50.560;7.268;2022-08-01T00:19:13;1.77;;;0.90;;
36555;SDS011;40859;50.560;7.268;2022-08-01T00:21:39;3.78;;;1.02;;
36555;SDS011;40859;50.560;7.268;2022-08-01T00:24:05;2.90;;;1.10;;
36555;SDS011;40859;50.560;7.268;2022-08-01T00:26:31;4.62;;;1.08;;
36555;SDS011;40859;50.560;7.268;2022-08-01T00:28:57;6.05;;;1.00;;
36555;SDS011;40859;50.560;7.268;2022-08-01T00:31:23;4.82;;;1.10;;
36555;SDS011;40859;50.560;7.268;2022-08-01T00:33:49;3.42;;;0.90;;
36555;SDS011;40859;50.560;7.268;2022-08-01T00:36:15;2.17;;;1.02;;
36555;SDS011;40859;50.560;7.268;2022-08-01T00:38:41;2.22;;;1.10;;
36555;SDS011;40859;50.560;7.268;2022-08-01T00:41:06;5.82;;;1.20;;
36555;SDS011;40859;50.560;7.268;2022-08-01T00:43:32;2.50;;;1.23;;
36555;SDS011;40859;50.560;7.268;2022-08-01T00:45:58;1.60;;;0.90;;
36555;SDS011;40859;50.560;7.268;2022-08-01T00:48:27;3.65;;;0.98;;
36555;SDS011;40859;50.560;7.268;2022-08-01T00:50:53;6.03;;;1.10;;
36555;SDS011;40859;50.560;7.268;2022-08-01T00:53:19;4.40;;;0.98;;
36555;SDS011;40859;50.560;7.268;2022-08-01T00:55:46;1.58;;;1.00;;
36555;SDS011;40859;50.560;7.268;2022-08-01T00:58:13;1.35;;;0.77;;
36555;SDS011;40859;50.560;7.268;2022-08-01T01:00:39;1.98;;;1.10;;
36555;SDS011;40859;50.560;7.268;2022-08-01T01:03:04;1.25;;;0.82;;
36555;SDS011;40859;50.560;7.268;2022-08-01T01:05:31;0.90;;;0.80;;
36555;SDS011;40859;50.560;7.268;2022-08-01T01:08:08;3.95;;;0.95;;
36555;SDS011;40859;50.560;7.268;2022-08-01T01:10:48;3.12;;;1.15;;
36555;SDS011;40859;50.560;7.268;2022-08-01T01:13:29;1.33;;;0.77;;
36555;SDS011;40859;50.560;7.268;2022-08-01T01:16:15;4.25;;;1.00;;
36555;SDS011;40859;50.560;7.268;2022-08-01T01:18:45;2.75;;;1.15;;
36555;SDS011;40859;50.560;7.268;2022-08-01T01:29:41;1.80;;;0.77;;
36555;SDS011;40859;50.560;7.268;2022-08-01T01:32:13;1.17;;;0.57;;
36555;SDS011;40859;50.560;7.268;2022-08-01T01:35:05;1.53;;;0.93;;
36555;SDS011;40859;50.560;7.268;2022-08-01T01:37:34;1.65;;;0.80;;
36555;SDS011;40859;50.560;7.268;2022-08-01T01:40:02;1.42;;;1.05;;
36555;SDS011;40859;50.560;7.268;2022-08-01T01:42:30;2.15;;;0.70;;
36555;SDS011;40859;50.560;7.268;2022-08-01T01:44:58;2.33;;;1.05;;
36555;SDS011;40859;50.560;7.268;2022-08-01T01:47:29;1.98;;;0.77;;
36555;SDS011;40859;50.560;7.268;2022-08-01T01:49:56;1.20;;;0.82;;
36555;SDS011;40859;50.560;7.268;2022-08-01T01:52:25;1.02;;;0.90;;
36555;SDS011;40859;50.560;7.268;2022-08-01T01:54:53;2.28;;;0.88;;
36555;SDS011;40859;50.560;7.268;2022-08-01T01:57:21;3.60;;;0.95;;
36555;SDS011;40859;50.560;7.268;2022-08-01T01:59:48;0.98;;;0.75;;
36555;SDS011;40859;50.560;7.268;2022-08-01T02:02:16;2.20;;;1.25;;
36555;SDS011;40859;50.560;7.268;2022-08-01T02:04:44;3.00;;;1.33;;
36555;SDS011;40859;50.560;7.268;2022-08-01T02:07:12;1.20;;;0.90;;
36555;SDS011;40859;50.560;7.268;2022-08-01T02:09:42;2.15;;;0.80;;
36555;SDS011;40859;50.560;7.268;2022-08-01T02:12:11;1.35;;;0.80;;
36555;SDS011;40859;50.560;7.268;2022-08-01T02:14:39;1.00;;;0.65;;
36555;SDS011;40859;50.560;7.268;2022-08-01T02:17:08;2.25;;;0.95;;
36555;SDS011;40859;50.560;7.268;2022-08-01T02:19:37;1.92;;;0.90;;
36555;SDS011;40859;50.560;7.268;2022-08-01T02:22:10;2.28;;;0.82;;
36555;SDS011;40859;50.560;7.268;2022-08-01T02:24:48;1.17;;;0.70;;
36555;SDS011;40859;50.560;7.268;2022-08-01T02:27:19;1.05;;;0.88;;
36555;SDS011;40859;50.560;7.268;2022-08-01T02:29:51;1.02;;;0.68;;
36555;SDS011;40859;50.560;7.268;2022-08-01T02:32:23;2.35;;;1.10;;
36555;SDS011;40859;50.560;7.268;2022-08-01T02:34:59;1.48;;;0.70;;
36555;SDS011;40859;50.560;7.268;2022-08-01T02:37:29;2.67;;;0.90;;
36555;SDS011;40859;50.560;7.268;2022-08-01T02:39:59;0.68;;;0.57;;
36555;SDS011;40859;50.560;7.268;2022-08-01T02:42:26;1.65;;;0.70;;
36555;SDS011;40859;50.560;7.268;2022-08-01T02:44:55;1.40;;;0.65;;
36555;SDS011;40859;50.560;7.268;2022-08-01T02:47:22;1.98;;;0.98;;
36555;SDS011;40859;50.560;7.268;2022-08-01T02:49:50;1.85;;;1.23;;
36555;SDS011;40859;50.560;7.268;2022-08-01T02:52:18;3.58;;;1.05;;
36555;SDS011;40859;50.560;7.268;2022-08-01T02:54:47;1.27;;;0.90;;
36555;SDS011;40859;50.560;7.268;2022-08-01T02:57:16;1.30;;;0.80;;
36555;SDS011;40859;50.560;7.268;2022-08-01T02:59:45;2.22;;;1.12;;
36555;SDS011;40859;50.560;7.268;2022-08-01T03:02:14;1.40;;;0.80;;
36555;SDS011;40859;50.560;7.268;2022-08-01T03:04:41;1.37;;;0.80;;
36555;SDS011;40859;50.560;7.268;2022-08-01T03:07:10;1.98;;;0.98;;
36555;SDS011;40859;50.560;7.268;2022-08-01T03:09:41;2.80;;;0.90;;
36555;SDS011;40859;50.560;7.268;2022-08-01T03:12:14;2.37;;;1.10;;
36555;SDS011;40859;50.560;7.268;2022-08-01T03:14:43;1.25;;;0.88;;
36555;SDS011;40859;50.560;7.268;2022-08-01T03:17:11;3.95;;;0.80;;
36555;SDS011;40859;50.560;7.268;2022-08-01T03:19:38;0.98;;;0.73;;
36555;SDS011;40859;50.560;7.268;2022-08-01T03:22:08;3.10;;;1.00;;
36555;SDS011;40859;50.560;7.268;2022-08-01T03:24:38;8.18;;;1.73;;
36555;SDS011;40859;50.560;7.268;2022-08-01T03:27:05;4.75;;;0.95;;
36555;SDS011;40859;50.560;7.268;2022-08-01T03:29:33;2.60;;;1.00;;
36555;SDS011;40859;50.560;7.268;2022-08-01T03:32:01;3.08;;;1.00;;
36555;SDS011;40859;50.560;7.268;2022-08-01T03:34:28;3.28;;;1.10;;
36555;SDS011;40859;50.560;7.268;2022-08-01T03:37:06;3.62;;;0.98;;
36555;SDS011;40859;50.560;7.268;2022-08-01T03:46:22;1.37;;;1.10;;
36555;SDS011;40859;50.560;7.268;2022-08-01T03:49:07;1.05;;;0.77;;
36555;SDS011;40859;50.560;7.268;2022-08-01T03:51:39;4.65;;;1.45;;
36555;SDS011;40859;50.560;7.268;2022-08-01T03:54:06;3.12;;;1.08;;
36555;SDS011;40859;50.560;7.268;2022-08-01T03:56:33;2.45;;;0.88;;
36555;SDS011;40859;50.560;7.268;2022-08-01T03:59:01;5.43;;;1.48;;
36555;SDS011;40859;50.560;7.268;2022-08-01T04:01:28;1.87;;;0.98;;
36555;SDS011;40859;50.560;7.268;2022-08-01T04:03:58;1.80;;;0.88;;
36555;SDS011;40859;50.560;7.268;2022-08-01T04:06:24;3.03;;;1.08;;
36555;SDS011;40859;50.560;7.268;2022-08-01T04:08:50;3.33;;;1.17;;
36555;SDS011;40859;50.560;7.268;2022-08-01T04:11:25;2.20;;;1.10;;
36555;SDS011;40859;50.560;7.268;2022-08-01T04:13:53;1.00;;;0.90;;
36555;SDS011;40859;50.560;7.268;2022-08-01T04:16:20;8.35;;;1.10;;
36555;SDS011;40859;50.560;7.268;2022-08-01T04:18:46;7.65;;;1.05;;
36555;SDS011;40859;50.560;7.268;2022-08-01T04:21:12;2.15;;;1.10;;
36555;SDS011;40859;50.560;7.268;2022-08-01T04:23:40;12.55;;;2.17;;
36555;SDS011;40859;50.560;7.268;2022-08-01T04:26:09;18.45;;;2.12;;
36555;SDS011;40859;50.560;7.268;2022-08-01T04:28:37;16.75;;;3.40;;
36555;SDS011;40859;50.560;7.268;2022-08-01T04:31:06;10.57;;;2.65;;
36555;SDS011;40859;50.560;7.268;2022-08-01T04:33:35;14.48;;;2.37;;
36555;SDS011;40859;50.560;7.268;2022-08-01T04:36:06;4.12;;;1.80;;
36555;SDS011;40859;50.560;7.268;2022-08-01T04:38:34;7.28;;;2.15;;
36555;SDS011;40859;50.560;7.268;2022-08-01T04:41:02;7.85;;;1.62;;
36555;SDS011;40859;50.560;7.268;2022-08-01T04:43:32;6.18;;;1.95;;
36555;SDS011;40859;50.560;7.268;2022-08-01T04:45:58;10.10;;;2.05;;
36555;SDS011;40859;50.560;7.268;2022-08-01T04:48:26;8.70;;;2.00;;
36555;SDS011;40859;50.560;7.268;2022-08-01T04:50:52;7.70;;;3.03;;
36555;SDS011;40859;50.560;7.268;2022-08-01T04:53:19;8.70;;;3.17;;
36555;SDS011;40859;50.560;7.268;2022-08-01T04:55:48;7.43;;;2.30;;
36555;SDS011;40859;50.560;7.268;2022-08-01T04:58:15;7.87;;;3.00;;
36555;SDS011;40859;50.560;7.268;2022-08-01T05:00:41;6.95;;;3.20;;
36555;SDS011;40859;50.560;7.268;2022-08-01T05:03:07;21.48;;;3.08;;
36555;SDS011;40859;50.560;7.268;2022-08-01T05:05:34;11.52;;;3.37;;
36555;SDS011;40859;50.560;7.268;2022-08-01T05:08:00;17.42;;;4.28;;
36555;SDS011;40859;50.560;7.268;2022-08-01T05:10:26;9.43;;;3.53;;
36555;SDS011;40859;50.560;7.268;2022-08-01T05:12:52;18.55;;;4.25;;
36555;SDS011;40859;50.560;7.268;2022-08-01T05:15:19;8.98;;;3.05;;
36555;SDS011;40859;50.560;7.268;2022-08-01T05:17:44;4.72;;;2.87;;
36555;SDS011;40859;50.560;7.268;2022-08-01T05:20:11;4.97;;;2.95;;
36555;SDS011;40859;50.560;7.268;2022-08-01T05:22:38;11.38;;;3.37;;
36555;SDS011;40859;50.560;7.268;2022-08-01T05:25:04;9.23;;;3.35;;
36555;SDS011;40859;50.560;7.268;2022-08-01T05:27:31;7.78;;;3.37;;
36555;SDS011;40859;50.560;7.268;2022-08-01T05:29:57;7.50;;;3.47;;
36555;SDS011;40859;50.560;7.268;2022-08-01T05:32:23;15.88;;;4.35;;
36555;SDS011;40859;50.560;7.268;2022-08-01T05:34:49;4.80;;;2.90;;
36555;SDS011;40859;50.560;7.268;2022-08-01T05:37:15;9.90;;;2.97;;
36555;SDS011;40859;50.560;7.268;2022-08-01T05:39:41;7.78;;;2.75;;
36555;SDS011;40859;50.560;7.268;2022-08-01T05:42:06;5.05;;;2.90;;
36555;SDS011;40859;50.560;7.268;2022-08-01T05:44:33;9.70;;;3.15;;
36555;SDS011;40859;50.560;7.268;2022-08-01T05:46:59;6.68;;;2.83;;
36555;SDS011;40859;50.560;7.268;2022-08-01T05:49:25;25.65;;;3.78;;
36555;SDS011;40859;50.560;7.268;2022-08-01T05:51:51;23.42;;;4.25;;
36555;SDS011;40859;50.560;7.268;2022-08-01T05:54:18;3.28;;;2.50;;
36555;SDS011;40859;50.560;7.268;2022-08-01T05:56:43;5.18;;;2.92;;
36555;SDS011;40859;50.560;7.268;2022-08-01T05:59:10;6.95;;;2.80;;
36555;SDS011;40859;50.560;7.268;2022-08-01T06:01:36;8.05;;;2.70;;
36555;SDS011;40859;50.560;7.268;2022-08-01T06:04:02;12.95;;;3.05;;
36555;SDS011;40859;50.560;7.268;2022-08-01T06:06:28;6.62;;;3.55;;
36555;SDS011;40859;50.560;7.268;2022-08-01T06:08:54;12.68;;;3.55;;
36555;SDS011;40859;50.560;7.268;2022-08-01T06:11:21;11.07;;;4.07;;
36555;SDS011;40859;50.560;7.268;2022-08-01T06:13:46;7.05;;;3.53;;
36555;SDS011;40859;50.560;7.268;2022-08-01T06:16:12;6.68;;;4.15;;
36555;SDS011;40859;50.560;7.268;2022-08-01T06:18:38;7.75;;;3.87;;
36555;SDS011;40859;50.560;7.268;2022-08-01T06:21:05;8.27;;;3.58;;
36555;SDS011;40859;50.560;7.268;2022-08-01T06:23:31;22.15;;;4.10;;
36555;SDS011;40859;50.560;7.268;2022-08-01T06:25:57;10.35;;;4.22;;
36555;SDS011;40859;50.560;7.268;2022-08-01T06:28:23;18.12;;;4.53;;
36555;SDS011;40859;50.560;7.268;2022-08-01T06:30:49;15.60;;;3.85;;
36555;SDS011;40859;50.560;7.268;2022-08-01T06:33:15;15.80;;;4.35;;
36555;SDS011;40859;50.560;7.268;2022-08-01T06:35:41;6.28;;;3.50;;
36555;SDS011;40859;50.560;7.268;2022-08-01T06:38:07;14.10;;;4.37;;
36555;SDS011;40859;50.560;7.268;2022-08-01T06:40:33;22.75;;;4.03;;
36555;SDS011;40859;50.560;7.268;2022-08-01T06:42:59;17.55;;;4.55;;
36555;SDS011;40859;50.560;7.268;2022-08-01T06:45:26;10.98;;;3.83;;
36555;SDS011;40859;50.560;7.268;2022-08-01T06:50:18;12.20;;;3.25;;
36555;SDS011;40859;50.560;7.268;2022-08-01T06:52:44;9.23;;;3.75;;
36555;SDS011;40859;50.560;7.268;2022-08-01T06:55:10;9.40;;;3.92;;
36555;SDS011;40859;50.560;7.268;2022-08-01T06:57:39;6.72;;;3.55;;
36555;SDS011;40859;50.560;7.268;2022-08-01T07:00:11;9.38;;;4.10;;
36555;SDS011;40859;50.560;7.268;2022-08-01T07:02:38;7.50;;;3.75;;
36555;SDS011;40859;50.560;7.268;2022-08-01T07:05:04;8.93;;;3.28;;
36555;SDS011;40859;50.560;7.268;2022-08-01T07:07:30;6.85;;;3.17;;
36555;SDS011;40859;50.560;7.268;2022-08-01T07:09:57;7.60;;;3.97;;
36555;SDS011;40859;50.560;7.268;2022-08-01T07:12:22;10.00;;;3.67;;
36555;SDS011;40859;50.560;7.268;2022-08-01T07:14:48;7.05;;;3.15;;
36555;SDS011;40859;50.560;7.268;2022-08-01T07:17:14;7.87;;;3.58;;
36555;SDS011;40859;50.560;7.268;2022-08-01T07:19:40;7.95;;;3.37;;
36555;SDS011;40859;50.560;7.268;2022-08-01T07:22:06;9.48;;;3.70;;
36555;SDS011;40859;50.560;7.268;2022-08-01T07:24:31;5.05;;;3.45;;
36555;SDS011;40859;50.560;7.268;2022-08-01T07:26:57;7.82;;;3.10;;
36555;SDS011;40859;50.560;7.268;2022-08-01T07:29:23;7.65;;;3.58;;
36555;SDS011;40859;50.560;7.268;2022-08-01T07:31:54;15.48;;;5.10;;
36555;SDS011;40859;50.560;7.268;2022-08-01T07:34:21;8.20;;;3.62;;
36555;SDS011;40859;50.560;7.268;2022-08-01T07:36:48;7.12;;;3.92;;
36555;SDS011;40859;50.560;7.268;2022-08-01T07:39:15;7.55;;;3.40;;
36555;SDS011;40859;50.560;7.268;2022-08-01T07:41:41;8.60;;;3.42;;
36555;SDS011;40859;50.560;7.268;2022-08-01T07:44:06;12.00;;;3.92;;
36555;SDS011;40859;50.560;7.268;2022-08-01T07:46:32;5.00;;;3.33;;
36555;SDS011;40859;50.560;7.268;2022-08-01T07:48:58;5.43;;;3.08;;
36555;SDS011;40859;50.560;7.268;2022-08-01T07:51:24;9.80;;;3.40;;
36555;SDS011;40859;50.560;7.268;2022-08-01T07:53:49;6.62;;;3.50;;
36555;SDS011;40859;50.560;7.268;2022-08-01T07:56:15;4.90;;;3.25;;
36555;SDS011;40859;50.560;7.268;2022-08-01T07:58:41;6.18;;;3.42;;
36555;SDS011;40859;50.560;7.268;2022-08-01T08:01:07;5.30;;;3.47;;
36555;SDS011;40859;50.560;7.268;2022-08-01T08:03:33;6.65;;;3.42;;
36555;SDS011;40859;50.560;7.268;2022-08-01T08:05:59;3.87;;;3.33;;
36555;SDS011;40859;50.560;7.268;2022-08-01T08:08:25;4.40;;;3.60;;
36555;SDS011;40859;50.560;7.268;2022-08-01T08:10:52;5.43;;;3.62;;
36555;SDS011;40859;50.560;7.268;2022-08-01T08:13:18;4.82;;;3.35;;
36555;SDS011;40859;50.560;7.268;2022-08-01T08:15:44;7.68;;;3.40;;
36555;SDS011;40859;50.560;7.268;2022-08-01T08:18:10;3.65;;;3.03;;
36555;SDS011;40859;50.560;7.268;2022-08-01T08:20:36;8.02;;;3.42;;
36555;SDS011;40859;50.560;7.268;2022-08-01T08:23:01;7.90;;;4.37;;
36555;SDS011;40859;50.560;7.268;2022-08-01T08:26:44;6.30;;;3.15;;
36555;SDS011;40859;50.560;7.268;2022-08-01T08:29:10;5.97;;;3.37;;
36555;SDS011;40859;50.560;7.268;2022-08-01T08:31:36;4.62;;;3.50;;
36555;SDS011;40859;50.560;7.268;2022-08-01T08:34:02;8.90;;;3.17;;
36555;SDS011;40859;50.560;7.268;2022-08-01T08:36:29;8.80;;;4.10;;
36555;SDS011;40859;50.560;7.268;2022-08-01T08:38:55;8.13;;;3.35;;
36555;SDS011;40859;50.560;7.268;2022-08-01T08:41:21;7.80;;;3.25;;
36555;SDS011;40859;50.560;7.268;2022-08-01T08:43:48;7.68;;;3.95;;
36555;SDS011;40859;50.560;7.268;2022-08-01T08:46:14;5.12;;;3.30;;
36555;SDS011;40859;50.560;7.268;2022-08-01T08:48:40;11.38;;;3.53;;
36555;SDS011;40859;50.560;7.268;2022-08-01T08:51:07;10.07;;;3.40;;
36555;SDS011;40859;50.560;7.268;2022-08-01T08:53:36;12.85;;;3.87;;
36555;SDS011;40859;50.560;7.268;2022-08-01T08:56:08;7.28;;;3.50;;
36555;SDS011;40859;50.560;7.268;2022-08-01T08:58:37;11.63;;;4.15;;
36555;SDS011;40859;50.560;7.268;2022-08-01T09:01:06;7.72;;;3.50;;
36555;SDS011;40859;50.560;7.268;2022-08-01T09:03:33;8.63;;;4.18;;
36555;SDS011;40859;50.560;7.268;2022-08-01T09:06:00;7.30;;;3.53;;
36555;SDS011;40859;50.560;7.268;2022-08-01T09:08:26;6.68;;;3.75;;
36555;SDS011;40859;50.560;7.268;2022-08-01T09:10:52;13.95;;;3.67;;
36555;SDS011;40859;50.560;7.268;2022-08-01T09:13:17;6.75;;;4.20;;
36555;SDS011;40859;50.560;7.268;2022-08-01T09:15:44;4.47;;;3.15;;
36555;SDS011;40859;50.560;7.268;2022-08-01T09:24:24;8.75;;;5.35;;
36555;SDS011;40859;50.560;7.268;2022-08-01T09:26:53;5.62;;;3.83;;
36555;SDS011;40859;50.560;7.268;2022-08-01T09:29:24;5.22;;;3.80;;
36555;SDS011;40859;50.560;7.268;2022-08-01T09:31:52;8.10;;;3.83;;
36555;SDS011;40859;50.560;7.268;2022-08-01T09:34:27;5.00;;;3.28;;
36555;SDS011;40859;50.560;7.268;2022-08-01T09:36:55;5.75;;;4.25;;
36555;SDS011;40859;50.560;7.268;2022-08-01T09:39:26;4.87;;;3.47;;
36555;SDS011;40859;50.560;7.268;2022-08-01T09:41:58;7.80;;;3.47;;
36555;SDS011;40859;50.560;7.268;2022-08-01T09:44:43;9.50;;;3.78;;
36555;SDS011;40859;50.560;7.268;2022-08-01T09:47:10;10.35;;;4.18;;
36555;SDS011;40859;50.560;7.268;2022-08-01T09:49:38;6.20;;;4.05;;
36555;SDS011;40859;50.560;7.268;2022-08-01T09:52:15;6.05;;;3.83;;
36555;SDS011;40859;50.560;7.268;2022-08-01T09:54:43;6.93;;;3.55;;
36555;SDS011;40859;50.560;7.268;2022-08-01T09:59:44;6.82;;;4.15;;
36555;SDS011;40859;50.560;7.268;2022-08-01T10:02:12;4.28;;;2.95;;
36555;SDS011;40859;50.560;7.268;2022-08-01T10:04:51;12.93;;;5.07;;
36555;SDS011;40859;50.560;7.268;2022-08-01T10:07:18;6.47;;;4.22;;
36555;SDS011;40859;50.560;7.268;2022-08-01T10:09:45;10.55;;;5.25;;
36555;SDS011;40859;50.560;7.268;2022-08-01T10:12:12;9.02;;;4.22;;
36555;SDS011;40859;50.560;7.268;2022-08-01T22:30:31;2.17;;;1.70;;
36555;SDS011;40859;50.560;7.268;2022-08-01T22:32:59;1.98;;;1.70;;
36555;SDS011;40859;50.560;7.268;2022-08-01T22:35:25;1.70;;;1.40;;
36555;SDS011;40859;50.560;7.268;2022-08-01T22:37:53;3.87;;;1.65;;
36555;SDS011;40859;50.560;7.268;2022-08-01T22:40:18;1.60;;;1.50;;
36555;SDS011;40859;50.560;7.268;2022-08-01T22:42:45;2.22;;;1.80;;
36555;SDS011;40859;50.560;7.268;2022-08-01T22:45:21;1.75;;;1.60;;
36555;SDS011;40859;50.560;7.268;2022-08-01T22:49:26;2.05;;;1.73;;
36555;SDS011;40859;50.560;7.268;2022-08-01T22:52:53;8.60;;;1.90;;
36555;SDS011;40859;50.560;7.268;2022-08-01T22:56:52;5.68;;;1.83;;
36555;SDS011;40859;50.560;7.268;2022-08-01T22:59:57;1.87;;;1.70;;
36555;SDS011;40859;50.560;7.268;2022-08-01T23:02:25;2.33;;;1.83;;
36555;SDS011;40859;50.560;7.268;2022-08-01T23:04:55;1.80;;;1.40;;
36555;SDS011;40859;50.560;7.268;2022-08-01T23:07:27;4.53;;;1.73;;
36555;SDS011;40859;50.560;7.268;2022-08-01T23:09:58;6.37;;;1.75;;
36555;SDS011;40859;50.560;7.268;2022-08-01T23:12:25;3.62;;;2.00;;
36555;SDS011;40859;50.560;7.268;2022-08-01T23:14:52;2.97;;;1.48;;
36555;SDS011;40859;50.560;7.268;2022-08-01T23:17:20;3.40;;;2.35;;
36555;SDS011;40859;50.560;7.268;2022-08-01T23:19:46;3.08;;;2.05;;
36555;SDS011;40859;50.560;7.268;2022-08-01T23:22:13;3.42;;;1.87;;
36555;SDS011;40859;50.560;7.268;2022-08-01T23:24:40;3.20;;;1.77;;
36555;SDS011;40859;50.560;7.268;2022-08-01T23:27:07;4.87;;;1.75;;
36555;SDS011;40859;50.560;7.268;2022-08-01T23:29:53;3.12;;;1.52;;
36555;SDS011;40859;50.560;7.268;2022-08-01T23:32:20;4.35;;;1.70;;
36555;SDS011;40859;50.560;7.268;2022-08-01T23:34:47;3.58;;;1.90;;
36555;SDS011;40859;50.560;7.268;2022-08-01T23:37:13;9.05;;;1.70;;
36555;SDS011;40859;50.560;7.268;2022-08-01T23:39:39;3.55;;;1.92;;
36555;SDS011;40859;50.560;7.268;2022-08-01T23:42:06;4.00;;;1.75;;
36555;SDS011;40859;50.560;7.268;2022-08-01T23:44:32;3.90;;;1.20;;
36555;SDS011;40859;50.560;7.268;2022-08-01T23:46:59;2.33;;;1.33;;
36555;SDS011;40859;50.560;7.268;2022-08-01T23:49:25;3.95;;;1.67;;
36555;SDS011;40859;50.560;7.268;2022-08-01T23:51:51;1.50;;;1.23;;
36555;SDS011;40859;50.560;7.268;2022-08-01T23:54:17;5.45;;;1.73;;
36555;SDS011;40859;50.560;7.268;2022-08-01T23:56:43;1.95;;;1.55;;
36555;SDS011;40859;50.560;7.268;2022-08-01T23:59:09;2.50;;;1.77;;
